Time;durP1;ratioP1;P1;durP2;ratioP2;P2;SDS_P1;SDS_P2;PMS_P1;PMS_P2;Temp;Humidity;BMP_temperature;BMP_pressure;BME280_temperature;BME280_humidity;BME280_pressure;Samples;Min_cycle;Max_cycle;Signal;HPM_P1;HPM_P2
2023/02/23 00:01:39;;;;;;;50.30;26.17;;;;;;;9.51;100.00;99984.09;20696270;28;20061;-68
2023/02/23 00:11:40;;;;;;;46.03;26.10;;;;;;;9.48;100.00;99984.13;20707847;28;20449;-68
2023/02/23 00:21:42;;;;;;;53.85;27.33;;;;;;;9.48;100.00;99978.91;20702273;28;20092;-67
2023/02/23 00:31:43;;;;;;;52.22;28.13;;;;;;;9.49;100.00;99970.19;20709521;28;20142;-69
2023/02/23 00:41:45;;;;;;;53.15;28.92;;;;;;;9.51;100.00;99968.41;20807782;23;20546;-73
2023/02/23 00:51:46;;;;;;;55.55;30.83;;;;;;;9.55;100.00;99966.59;20705703;28;20407;-73
2023/02/23 01:01:48;;;;;;;58.05;31.45;;;;;;;9.56;100.00;99964.84;20713760;28;20399;-72
2023/02/23 01:11:49;;;;;;;54.05;28.52;;;;;;;9.54;100.00;99956.19;20711978;28;20058;-72
2023/02/23 01:21:50;;;;;;;47.65;26.42;;;;;;;9.52;100.00;99964.91;20713774;28;20046;-72
2023/02/23 01:31:52;;;;;;;51.15;26.52;;;;;;;9.50;100.00;99964.06;20720074;28;20414;-72
2023/02/23 01:41:53;;;;;;;45.78;26.05;;;;;;;9.51;100.00;99963.19;20712597;28;20046;-72
2023/02/23 01:51:55;;;;;;;46.80;26.48;;;;;;;9.52;100.00;99949.22;20707593;28;20434;-72
2023/02/23 02:01:56;;;;;;;45.63;25.88;;;;;;;9.49;100.00;99949.28;20712886;28;20112;-72
2023/02/23 02:12:01;;;;;;;49.58;27.30;;;;;;;9.50;100.00;99945.78;20714017;28;20176;-72
2023/02/23 02:22:03;;;;;;;48.05;26.05;;;;;;;9.48;100.00;99946.69;20709432;28;20435;-73
2023/02/23 02:32:06;;;;;;;54.47;29.17;;;;;;;9.56;100.00;99943.94;20705013;28;20046;-73
2023/02/23 02:42:08;;;;;;;54.08;30.52;;;;;;;9.49;100.00;99938.84;20712361;28;20045;-72
2023/02/23 02:52:09;;;;;;;50.30;28.42;;;;;;;9.45;100.00;99926.72;20709986;28;20053;-72
2023/02/23 04:24:32;;;;;;;55.60;30.83;;;;;;;9.21;100.00;99948.91;20701727;28;20042;-72
2023/02/23 04:34:33;;;;;;;57.00;32.17;;;;;;;9.19;100.00;99957.66;20697457;28;20054;-74
2023/02/23 04:44:34;;;;;;;63.00;33.05;;;;;;;9.11;100.00;99946.50;20705609;28;20063;-74
2023/02/23 04:54:35;;;;;;;60.53;32.03;;;;;;;9.01;100.00;99953.63;20704406;28;20042;-73
2023/02/23 05:04:37;;;;;;;57.00;30.70;;;;;;;9.00;100.00;99954.50;20697207;28;20133;-73
2023/02/23 05:14:38;;;;;;;53.53;29.02;;;;;;;8.92;100.00;99945.94;20699327;28;20097;-75
2023/02/23 05:24:40;;;;;;;55.75;30.15;;;;;;;8.82;100.00;99950.44;20723091;28;20050;-75
2023/02/23 05:34:41;;;;;;;57.35;30.20;;;;;;;8.79;100.00;99950.50;20695850;28;20049;-72
2023/02/23 05:44:42;;;;;;;59.97;31.35;;;;;;;8.70;100.00;99950.63;20710774;28;20049;-73
2023/02/23 05:54:45;;;;;;;61.00;32.03;;;;;;;8.69;100.00;99957.59;20710417;28;20478;-73
2023/02/23 06:04:46;;;;;;;63.80;32.65;;;;;;;8.69;100.00;99954.13;20715293;28;20058;-73
2023/02/23 06:14:49;;;;;;;61.05;31.95;;;;;;;8.65;100.00;99958.53;20711179;28;20097;-73
2023/02/23 06:24:51;;;;;;;67.07;36.60;;;;;;;8.68;100.00;99981.13;20705335;28;20045;-73
2023/02/23 06:34:52;;;;;;;68.43;36.08;;;;;;;8.77;100.00;99982.69;20706632;28;20461;-72
2023/02/23 06:44:53;;;;;;;71.28;36.80;;;;;;;8.83;100.00;99996.53;20710469;28;20426;-72
2023/02/23 06:54:54;;;;;;;65.88;34.63;;;;;;;8.90;100.00;99999.91;20703635;28;20053;-72
2023/02/23 07:04:57;;;;;;;61.97;33.65;;;;;;;8.94;100.00;100012.91;20703805;28;20298;-73
2023/02/23 07:14:58;;;;;;;65.53;34.03;;;;;;;8.87;100.00;100028.69;20708444;28;20054;-72
2023/02/23 07:24:59;;;;;;;68.97;34.75;;;;;;;8.87;100.00;100029.56;20709463;28;20556;-71
2023/02/23 07:35:01;;;;;;;73.97;37.47;;;;;;;8.98;100.00;100032.00;20702656;28;20486;-73
2023/02/23 07:45:02;;;;;;;78.90;36.45;;;;;;;9.12;100.00;100042.25;20702877;28;20049;-73
2023/02/23 07:55:03;;;;;;;59.00;32.92;;;;;;;9.38;100.00;100033.97;20707848;28;20052;-73
2023/02/23 08:05:04;;;;;;;49.13;26.55;;;;;;;9.68;100.00;100037.84;20708814;28;20050;-73
2023/02/23 08:15:07;;;;;;;41.55;24.75;;;;;;;9.94;100.00;100030.34;20707164;28;20050;-73
2023/02/23 08:25:08;;;;;;;35.15;20.15;;;;;;;10.12;100.00;100029.13;20706773;28;20113;-73
2023/02/23 08:35:09;;;;;;;32.53;17.83;;;;;;;10.39;100.00;100025.13;20712291;28;20199;-73
2023/02/23 08:45:10;;;;;;;28.30;15.68;;;;;;;10.43;100.00;100029.41;20717295;28;20045;-73
2023/02/23 08:55:12;;;;;;;26.40;14.93;;;;;;;10.41;100.00;100028.56;20714325;28;20122;-73
2023/02/23 09:05:14;;;;;;;20.30;10.10;;;;;;;10.74;100.00;100026.13;20707936;28;20395;-73
2023/02/23 09:15:15;;;;;;;18.52;10.13;;;;;;;10.84;100.00;100038.13;20705365;28;20149;-73
2023/02/23 09:25:17;;;;;;;16.42;8.32;;;;;;;11.08;100.00;100033.22;20707614;28;20512;-72
2023/02/23 09:35:19;;;;;;;16.58;8.55;;;;;;;11.27;100.00;100037.09;20703877;28;20054;-72
2023/02/23 09:45:20;;;;;;;16.35;8.07;;;;;;;11.35;100.00;100040.38;20702689;28;20455;-72
2023/02/23 09:55:21;;;;;;;12.85;7.30;;;;;;;11.57;100.00;100048.59;20701837;28;20057;-72
2023/02/23 10:05:23;;;;;;;14.77;6.95;;;;;;;11.86;100.00;100053.09;20702717;28;20123;-72
2023/02/23 10:15:24;;;;;;;15.55;7.80;;;;;;;12.27;100.00;100059.00;20700984;28;20050;-72
2023/02/23 10:25:25;;;;;;;11.38;6.20;;;;;;;12.58;100.00;100049.31;20700538;28;20396;-72
2023/02/23 10:35:27;;;;;;;13.55;5.45;;;;;;;12.56;100.00;100063.41;20699223;28;20072;-72
2023/02/23 10:45:28;;;;;;;12.40;4.85;;;;;;;12.70;100.00;100065.63;20696312;28;20058;-72
2023/02/23 10:55:30;;;;;;;11.65;5.63;;;;;;;12.74;100.00;100062.88;20701134;28;20448;-71
2023/02/23 11:05:31;;;;;;;10.20;5.47;;;;;;;12.99;100.00;100052.47;20694685;28;20064;-72
2023/02/23 11:15:32;;;;;;;13.38;6.43;;;;;;;13.26;100.00;100044.63;20696198;28;20050;-72
2023/02/23 11:25:50;;;;;;;15.75;7.28;;;;;;;13.18;100.00;100036.13;20695333;28;20418;-72
2023/02/23 11:35:51;;;;;;;13.48;6.63;;;;;;;13.35;100.00;100028.56;20695967;28;20058;-72
2023/02/23 11:45:52;;;;;;;12.25;6.25;;;;;;;12.77;100.00;100035.63;20696435;28;20111;-72
2023/02/23 11:55:55;;;;;;;14.85;5.35;;;;;;;13.04;100.00;100026.03;20691829;28;20054;-71
2023/02/23 12:05:57;;;;;;;11.95;6.68;;;;;;;12.82;100.00;100028.47;20690397;28;20058;-73
2023/02/23 12:15:59;;;;;;;12.30;6.65;;;;;;;12.86;100.00;100021.38;20694538;28;20096;-71
2023/02/23 12:26:00;;;;;;;15.40;7.47;;;;;;;12.94;100.00;100014.97;20704223;28;20046;-71
2023/02/23 12:36:02;;;;;;;10.05;5.97;;;;;;;12.65;100.00;100021.13;20707116;28;20491;-71
2023/02/23 12:46:03;;;;;;;12.25;6.88;;;;;;;13.11;100.00;100014.41;20709300;28;20050;-71
2023/02/23 12:56:08;;;;;;;14.25;6.15;;;;;;;13.38;100.00;100002.19;20708477;28;20058;-74
2023/02/23 13:06:09;;;;;;;15.23;5.95;;;;;;;13.30;100.00;100004.19;20710730;28;20148;-74
2023/02/23 13:16:11;;;;;;;9.60;5.20;;;;;;;13.37;100.00;100000.47;20706117;28;20403;-74
2023/02/23 13:26:12;;;;;;;10.48;5.25;;;;;;;13.49;100.00;99984.25;20703787;28;20473;-74
2023/02/23 13:36:13;;;;;;;14.20;6.05;;;;;;;13.60;100.00;99987.34;20703599;28;20448;-73
2023/02/23 13:46:15;;;;;;;11.35;5.10;;;;;;;13.50;100.00;99983.34;20705113;28;20050;-73
2023/02/23 13:56:16;;;;;;;8.05;3.90;;;;;;;13.45;100.00;99974.75;20701934;28;20391;-73
2023/02/23 14:06:17;;;;;;;10.50;5.05;;;;;;;13.51;100.00;99971.91;20701580;28;20486;-73
2023/02/23 14:16:19;;;;;;;9.32;4.93;;;;;;;13.52;100.00;99968.38;20685566;28;20514;-72
2023/02/23 14:26:20;;;;;;;9.05;3.63;;;;;;;13.22;100.00;99966.78;20701907;28;20477;-70
2023/02/23 14:36:21;;;;;;;13.43;6.07;;;;;;;13.50;100.00;99964.06;20743077;28;20037;-71
2023/02/23 14:46:23;;;;;;;7.05;2.58;;;;;;;13.32;100.00;99960.31;20774967;28;20064;-73
2023/02/23 14:56:24;;;;;;;9.32;3.58;;;;;;;13.24;100.00;99960.56;20776194;28;20045;-74
2023/02/23 15:06:45;;;;;;;9.85;2.70;;;;;;;13.28;100.00;99963.97;20775017;28;20486;-74
2023/02/23 15:16:47;;;;;;;9.77;2.58;;;;;;;13.27;100.00;99968.34;20770857;28;20057;-74
2023/02/23 15:26:48;;;;;;;10.52;3.22;;;;;;;13.30;100.00;99962.13;20773152;28;20046;-74
2023/02/23 15:36:50;;;;;;;7.78;3.00;;;;;;;13.27;100.00;99967.47;20772743;28;20055;-73
2023/02/23 15:46:51;;;;;;;7.35;2.90;;;;;;;13.07;100.00;99976.84;20774774;28;20085;-74
2023/02/23 15:56:53;;;;;;;7.20;3.28;;;;;;;12.93;100.00;99965.06;20771687;28;20053;-75
2023/02/23 16:06:54;;;;;;;10.95;3.13;;;;;;;12.79;100.00;99970.75;20772027;28;20506;-74
2023/02/23 16:16:56;;;;;;;9.98;5.03;;;;;;;12.67;100.00;99972.00;20771927;28;20053;-74
2023/02/23 16:27:11;;;;;;;13.00;7.53;;;;;;;12.50;100.00;99976.91;20769742;28;20057;-75
2023/02/23 16:37:14;;;;;;;14.48;8.23;;;;;;;12.28;100.00;99984.59;20828084;28;20567;-74
2023/02/23 16:47:15;;;;;;;14.35;7.68;;;;;;;12.12;100.00;99978.03;20856798;28;20501;-75
2023/02/23 16:57:17;;;;;;;26.70;14.90;;;;;;;12.00;100.00;99984.53;20852072;28;20054;-74
2023/02/23 17:07:18;;;;;;;21.77;11.13;;;;;;;11.93;100.00;99994.34;20858147;28;20068;-75
2023/02/23 17:17:20;;;;;;;20.63;10.80;;;;;;;11.90;100.00;99999.66;20868439;28;20087;-72
2023/02/23 17:27:21;;;;;;;24.40;13.73;;;;;;;11.72;100.00;99998.34;20861128;28;20386;-73
2023/02/23 17:37:23;;;;;;;28.63;15.32;;;;;;;11.68;100.00;100006.34;20862091;28;20744;-73
2023/02/23 17:47:24;;;;;;;28.48;14.40;;;;;;;11.59;100.00;100003.97;20859072;28;20049;-73
2023/02/23 17:57:26;;;;;;;29.70;15.77;;;;;;;11.52;100.00;100009.38;20866653;28;20051;-73
2023/02/23 18:07:27;;;;;;;21.48;12.05;;;;;;;11.28;100.00;100017.84;20862134;28;20045;-73
2023/02/23 18:17:31;;;;;;;21.67;11.43;;;;;;;11.08;100.00;100022.72;20862287;28;20052;-73
2023/02/23 18:27:32;;;;;;;24.38;12.85;;;;;;;10.99;100.00;100029.03;20858548;28;20497;-74
2023/02/23 18:37:33;;;;;;;35.30;19.25;;;;;;;10.99;100.00;100016.81;20872961;28;20083;-73
2023/02/23 18:47:35;;;;;;;24.85;13.57;;;;;;;10.83;100.00;100012.81;20854702;28;20072;-75
2023/02/23 18:57:36;;;;;;;23.40;12.43;;;;;;;10.62;100.00;100018.53;20857773;28;20136;-75
2023/02/23 19:07:37;;;;;;;24.92;13.43;;;;;;;10.65;100.00;100013.25;20859074;28;20856;-74
2023/02/23 19:17:39;;;;;;;26.70;13.75;;;;;;;10.58;100.00;100016.88;20859982;28;20061;-74
2023/02/23 19:27:40;;;;;;;24.48;12.57;;;;;;;10.33;100.00;100000.84;20861994;28;20063;-79
2023/02/23 19:37:41;;;;;;;27.55;14.55;;;;;;;10.33;100.00;100000.84;20855910;28;20567;-76
2023/02/23 19:47:43;;;;;;;47.58;22.25;;;;;;;10.34;100.00;100003.41;20861101;28;20052;-76
2023/02/23 19:57:44;;;;;;;27.10;13.85;;;;;;;10.39;100.00;100006.78;20860027;28;20049;-78
2023/02/23 20:07:45;;;;;;;29.00;15.45;;;;;;;10.49;100.00;100007.44;20860474;28;20148;-76
2023/02/23 20:17:46;;;;;;;27.85;15.35;;;;;;;10.44;100.00;100015.44;20855131;28;20056;-77
2023/02/23 20:27:49;;;;;;;23.35;13.75;;;;;;;10.44;100.00;100019.78;20858448;28;20114;-76
2023/02/23 20:37:50;;;;;;;27.27;14.07;;;;;;;10.37;100.00;100013.81;20857152;28;20131;-78
2023/02/23 20:47:52;;;;;;;25.38;13.13;;;;;;;10.27;100.00;100020.16;20869297;28;20077;-76
2023/02/23 20:57:54;;;;;;;26.05;13.43;;;;;;;10.24;100.00;100020.19;20873708;28;20517;-76
2023/02/23 21:07:56;;;;;;;26.83;13.68;;;;;;;10.10;100.00;100016.97;20870701;28;20140;-76
2023/02/23 21:17:57;;;;;;;23.05;12.80;;;;;;;10.09;100.00;100020.47;20868804;28;20044;-78
2023/02/23 21:28:01;;;;;;;23.20;13.20;;;;;;;10.04;100.00;100020.56;20872932;28;20766;-79
2023/02/23 21:38:03;;;;;;;25.47;13.17;;;;;;;9.72;100.00;100024.66;20875533;28;20106;-75
2023/02/23 21:48:04;;;;;;;29.10;15.85;;;;;;;9.33;100.00;100014.91;20866455;28;20053;-74
2023/02/23 21:58:08;;;;;;;33.20;18.50;;;;;;;8.92;100.00;100012.06;20870829;28;20053;-73
2023/02/23 22:08:14;;;;;;;39.27;22.00;;;;;;;8.96;100.00;100021.59;20869481;28;20049;-74
2023/02/23 22:18:16;;;;;;;35.83;20.23;;;;;;;8.91;100.00;100026.03;20867643;28;20140;-74
2023/02/23 22:28:18;;;;;;;40.60;22.83;;;;;;;8.93;100.00;100026.84;20867451;28;20148;-74
2023/02/23 22:38:19;;;;;;;37.60;20.65;;;;;;;8.86;100.00;100021.72;20863738;28;20057;-76
2023/02/23 22:48:22;;;;;;;39.10;20.98;;;;;;;8.81;100.00;100011.34;20864083;28;20074;-75
2023/02/23 22:58:25;;;;;;;42.58;22.25;;;;;;;8.73;100.00;100013.22;20865071;28;20084;-72
2023/02/23 23:08:26;;;;;;;45.58;24.20;;;;;;;8.51;100.00;100002.22;20855479;28;20045;-71
2023/02/23 23:18:32;;;;;;;47.80;25.02;;;;;;;8.38;100.00;100006.72;20854843;28;20053;-72
2023/02/23 23:28:39;;;;;;;51.67;26.08;;;;;;;8.21;100.00;99996.50;20855115;28;20079;-72
2023/02/23 23:38:41;;;;;;;53.58;26.90;;;;;;;8.10;100.00;99989.69;20854385;28;20049;-73
2023/02/23 23:48:43;;;;;;;55.38;25.92;;;;;;;8.09;100.00;99991.41;20855797;28;20053;-74
2023/02/23 23:58:44;;;;;;;58.17;26.30;;;;;;;8.06;100.00;99983.66;20850950;28;20049;-75
